createdAt,value
2023-09-30T00:02:23.711Z,2.65
2023-09-30T00:04:51.917Z,2.58
2023-09-30T00:07:21.515Z,3.20
2023-09-30T00:09:50.372Z,2.65
2023-09-30T00:12:18.559Z,2.58
2023-09-30T00:14:46.746Z,2.50
2023-09-30T00:17:14.839Z,2.58
2023-09-30T00:19:43.099Z,2.40
2023-09-30T00:22:11.272Z,2.45
2023-09-30T00:24:40.855Z,2.85
2023-09-30T00:27:09.150Z,3.47
2023-09-30T00:29:37.632Z,3.33
2023-09-30T00:32:06.080Z,2.58
2023-09-30T00:34:35.915Z,2.15
2023-09-30T00:37:04.202Z,2.15
2023-09-30T00:39:32.430Z,1.85
2023-09-30T00:42:02.174Z,2.92
2023-09-30T00:44:30.319Z,2.13
2023-09-30T00:46:59.174Z,3.17
2023-09-30T00:49:27.853Z,2.60
2023-09-30T00:51:56.546Z,3.10
2023-09-30T00:54:26.454Z,2.75
2023-09-30T00:56:58.647Z,2.72
2023-09-30T00:59:28.678Z,2.17
2023-09-30T01:01:59.022Z,2.25
2023-09-30T01:04:29.030Z,2.60
2023-09-30T01:06:58.645Z,2.10
2023-09-30T01:09:26.916Z,2.50
2023-09-30T01:11:55.149Z,3.22
2023-09-30T01:14:28.515Z,2.30
2023-09-30T01:16:57.181Z,2.20
2023-09-30T01:19:26.294Z,2.00
2023-09-30T01:22:00.228Z,1.75
2023-09-30T01:24:28.646Z,1.70
2023-09-30T01:26:57.098Z,2.08
2023-09-30T01:29:26.974Z,2.03
2023-09-30T01:31:55.340Z,2.65
2023-09-30T01:34:24.078Z,2.60
2023-09-30T01:36:52.238Z,2.08
2023-09-30T01:39:21.918Z,2.42
2023-09-30T01:41:50.121Z,1.77
2023-09-30T01:44:18.738Z,1.65
2023-09-30T01:46:46.884Z,1.65
2023-09-30T01:49:15.145Z,1.60
2023-09-30T01:51:43.305Z,2.00
2023-09-30T01:54:12.197Z,1.80
2023-09-30T01:56:41.858Z,2.00
2023-09-30T01:59:10.113Z,2.28
2023-09-30T02:01:38.242Z,1.98
2023-09-30T02:04:08.018Z,1.75
2023-09-30T02:06:36.968Z,2.80
2023-09-30T02:09:09.383Z,2.00
2023-09-30T02:11:37.729Z,2.22
2023-09-30T02:14:08.430Z,1.88
2023-09-30T02:16:36.989Z,1.77
2023-09-30T02:19:05.330Z,2.00
2023-09-30T02:21:33.519Z,1.70
2023-09-30T02:24:01.642Z,1.65
2023-09-30T02:26:30.412Z,1.90
2023-09-30T02:28:59.016Z,2.20
2023-09-30T02:31:28.719Z,2.35
2023-09-30T02:33:57.424Z,1.75
2023-09-30T02:36:25.878Z,1.83
2023-09-30T02:38:54.664Z,1.58
2023-09-30T02:41:22.812Z,1.40
2023-09-30T02:43:50.916Z,1.90
2023-09-30T02:46:19.091Z,1.80
2023-09-30T02:48:48.754Z,1.80
2023-09-30T02:51:16.897Z,1.63
2023-09-30T02:53:45.068Z,1.75
2023-09-30T02:56:13.172Z,1.65
2023-09-30T02:58:41.661Z,2.03
2023-09-30T03:01:11.249Z,2.22
2023-09-30T03:03:41.027Z,1.80
2023-09-30T03:06:11.547Z,1.77
2023-09-30T03:08:39.854Z,1.83
2023-09-30T03:11:08.641Z,1.58
2023-09-30T03:13:36.782Z,1.52
2023-09-30T03:16:05.456Z,1.88
2023-09-30T03:18:33.698Z,1.70
2023-09-30T03:21:02.854Z,2.15
2023-09-30T03:23:32.637Z,2.38
2023-09-30T03:26:00.976Z,2.40
2023-09-30T03:28:30.039Z,2.17
2023-09-30T03:30:59.841Z,2.13
2023-09-30T03:33:28.108Z,2.15
2023-09-30T03:35:56.279Z,2.53
2023-09-30T03:38:24.623Z,2.35
2023-09-30T03:40:55.888Z,2.25
2023-09-30T03:43:24.385Z,2.30
2023-09-30T03:45:52.531Z,2.72
2023-09-30T03:48:20.779Z,2.47
2023-09-30T03:50:49.766Z,2.50
2023-09-30T03:53:17.887Z,1.75
2023-09-30T03:55:46.670Z,2.22
2023-09-30T03:58:16.517Z,2.45
2023-09-30T04:00:44.696Z,2.97
2023-09-30T04:03:13.092Z,2.10
2023-09-30T04:05:41.610Z,2.53
2023-09-30T04:08:09.722Z,2.25
2023-09-30T04:10:37.876Z,2.47
2023-09-30T04:13:05.972Z,3.00
2023-09-30T04:15:37.584Z,2.47
2023-09-30T04:18:07.599Z,2.83
2023-09-30T04:20:35.897Z,3.15
2023-09-30T04:23:04.164Z,2.75
2023-09-30T04:25:32.303Z,2.88
2023-09-30T04:28:00.557Z,2.70
2023-09-30T04:30:28.883Z,2.55
2023-09-30T04:32:59.743Z,2.60
2023-09-30T04:35:27.988Z,1.98
2023-09-30T04:37:56.136Z,2.33
2023-09-30T04:40:24.256Z,3.20
2023-09-30T04:42:52.378Z,2.80
2023-09-30T04:45:22.339Z,3.33
2023-09-30T04:47:51.399Z,2.60
2023-09-30T04:50:23.551Z,1.90
2023-09-30T04:52:52.785Z,2.80
2023-09-30T04:55:21.091Z,2.35
2023-09-30T04:57:50.088Z,1.95
2023-09-30T05:00:20.581Z,2.20
2023-09-30T05:02:49.130Z,3.28
2023-09-30T05:05:17.545Z,3.85
2023-09-30T05:07:48.604Z,2.03
2023-09-30T05:10:18.254Z,2.80
2023-09-30T05:12:48.402Z,3.63
2023-09-30T05:15:18.473Z,3.15
2023-09-30T05:17:47.330Z,2.75
2023-09-30T05:20:18.593Z,2.90
2023-09-30T05:22:50.100Z,2.40
2023-09-30T05:25:19.671Z,1.83
2023-09-30T05:27:50.138Z,2.47
2023-09-30T05:30:20.768Z,2.10
2023-09-30T05:32:49.292Z,3.08
2023-09-30T05:35:18.706Z,3.25
2023-09-30T05:37:48.665Z,2.95
2023-09-30T05:40:23.976Z,2.58
2023-09-30T05:42:52.631Z,2.15
2023-09-30T05:45:21.018Z,4.95
2023-09-30T05:47:52.249Z,4.53
2023-09-30T05:50:25.627Z,3.30
2023-09-30T05:52:56.451Z,2.35
2023-09-30T05:55:27.130Z,2.00
2023-09-30T05:57:56.304Z,2.20
2023-09-30T06:00:29.419Z,2.20
2023-09-30T06:02:58.186Z,2.65
2023-09-30T06:05:27.560Z,3.20
2023-09-30T06:07:57.126Z,2.80
2023-09-30T06:10:27.055Z,3.30
2023-09-30T06:12:56.546Z,3.63
2023-09-30T06:15:27.630Z,3.10
2023-09-30T06:17:56.949Z,2.88
2023-09-30T06:20:27.902Z,2.50
2023-09-30T06:22:58.045Z,2.65
2023-09-30T06:25:26.784Z,2.00
2023-09-30T06:27:55.796Z,1.88
2023-09-30T06:30:30.804Z,2.88
2023-09-30T06:33:01.187Z,6.20
2023-09-30T06:35:31.347Z,4.80
2023-09-30T06:38:02.326Z,4.70
2023-09-30T06:40:30.538Z,5.28
2023-09-30T06:42:59.032Z,5.72
2023-09-30T06:45:27.560Z,5.40
2023-09-30T06:47:56.769Z,6.55
2023-09-30T06:50:25.230Z,7.40
2023-09-30T06:52:53.730Z,6.53
2023-09-30T06:55:23.700Z,5.20
2023-09-30T06:57:52.260Z,5.88
2023-09-30T07:00:20.913Z,7.95
2023-09-30T07:02:49.357Z,8.63
2023-09-30T07:05:18.913Z,8.30
2023-09-30T07:07:47.362Z,8.07
2023-09-30T07:10:16.069Z,8.57
2023-09-30T07:12:46.001Z,7.93
2023-09-30T07:15:15.059Z,7.93
2023-09-30T07:17:45.958Z,8.43
2023-09-30T07:20:14.618Z,8.10
2023-09-30T07:22:55.783Z,6.97
2023-09-30T07:25:32.869Z,7.95
2023-09-30T07:28:02.786Z,7.38
2023-09-30T07:30:31.290Z,8.38
2023-09-30T07:32:59.896Z,7.55
2023-09-30T07:35:28.397Z,6.32
2023-09-30T07:37:56.900Z,5.32
2023-09-30T07:40:25.527Z,6.88
2023-09-30T07:42:54.007Z,7.47
2023-09-30T07:45:24.176Z,6.60
2023-09-30T07:47:53.335Z,7.25
2023-09-30T07:50:22.001Z,6.53
2023-09-30T07:52:50.758Z,6.22
2023-09-30T07:55:19.259Z,4.82
2023-09-30T07:57:48.131Z,6.50
2023-09-30T08:00:22.758Z,5.90
2023-09-30T08:02:52.767Z,5.57
2023-09-30T08:05:21.249Z,5.28
2023-09-30T08:07:50.853Z,5.95
2023-09-30T08:10:19.301Z,6.78
2023-09-30T08:12:49.828Z,6.25
2023-09-30T08:15:18.668Z,6.75
2023-09-30T08:17:47.845Z,6.18
2023-09-30T08:20:17.763Z,6.22
2023-09-30T08:22:46.186Z,7.40
2023-09-30T08:25:14.602Z,7.25
2023-09-30T08:27:43.449Z,6.45
2023-09-30T08:30:12.246Z,8.35
2023-09-30T08:32:40.814Z,5.45
2023-09-30T08:35:10.867Z,6.30
2023-09-30T08:37:40.730Z,5.93
2023-09-30T08:40:11.100Z,7.50
2023-09-30T08:42:41.408Z,5.95
2023-09-30T08:45:13.027Z,6.70
2023-09-30T08:47:43.296Z,5.93
2023-09-30T08:50:12.011Z,7.18
2023-09-30T08:52:42.912Z,5.60
2023-09-30T08:55:11.534Z,6.80
2023-09-30T08:57:41.656Z,5.18
2023-09-30T09:00:13.991Z,4.97
2023-09-30T09:02:43.054Z,3.97
2023-09-30T09:05:12.678Z,4.60
2023-09-30T09:07:44.241Z,5.68
2023-09-30T09:10:14.713Z,4.20
2023-09-30T09:12:44.019Z,4.63
2023-09-30T09:15:23.962Z,3.58
2023-09-30T09:17:53.622Z,3.90
2023-09-30T09:20:23.739Z,4.05
2023-09-30T09:22:56.697Z,3.58
2023-09-30T09:25:25.695Z,3.40
2023-09-30T09:27:55.297Z,3.10
2023-09-30T09:30:25.632Z,2.80
2023-09-30T09:33:01.084Z,3.78
2023-09-30T09:38:02.733Z,3.50
2023-09-30T09:40:32.084Z,3.40
2023-09-30T09:43:03.691Z,4.13
2023-09-30T09:45:34.178Z,3.10
2023-09-30T09:48:03.030Z,3.53
2023-09-30T09:50:33.129Z,3.60
2023-09-30T09:53:03.752Z,3.05
2023-09-30T09:55:31.930Z,3.28
2023-09-30T09:58:00.986Z,2.83
2023-09-30T10:00:31.317Z,3.50
2023-09-30T10:02:59.919Z,3.58
2023-09-30T10:05:29.867Z,3.30
2023-09-30T10:08:07.900Z,3.22
2023-09-30T10:10:40.190Z,2.95
2023-09-30T10:13:08.591Z,3.55
2023-09-30T10:15:42.319Z,3.22
2023-09-30T10:18:15.285Z,3.72
2023-09-30T10:20:49.333Z,3.45
2023-09-30T10:23:27.095Z,2.47
2023-09-30T10:25:59.045Z,2.53
2023-09-30T10:28:38.804Z,2.10
2023-09-30T10:31:19.102Z,2.13
2023-09-30T10:34:24.040Z,2.63
2023-09-30T10:36:55.401Z,2.10
2023-09-30T10:39:56.669Z,2.30
2023-09-30T10:42:48.179Z,2.38
2023-09-30T10:45:48.480Z,2.35
2023-09-30T10:48:37.161Z,2.30
2023-09-30T10:51:16.316Z,2.05
2023-09-30T10:53:47.482Z,2.78
2023-09-30T10:56:18.210Z,2.47
2023-09-30T10:58:47.431Z,2.38
2023-09-30T11:01:17.498Z,2.38
2023-09-30T11:03:46.991Z,2.33
2023-09-30T11:06:18.911Z,2.55
2023-09-30T11:08:53.188Z,2.90
2023-09-30T11:11:35.547Z,2.08
2023-09-30T11:14:05.148Z,2.47
2023-09-30T11:16:42.092Z,2.50
2023-09-30T11:19:10.477Z,2.00
2023-09-30T11:21:38.791Z,2.38
2023-09-30T11:24:08.195Z,2.38
2023-09-30T11:26:40.069Z,1.60
2023-09-30T11:29:09.637Z,2.22
2023-09-30T11:31:40.250Z,2.13
2023-09-30T11:34:09.302Z,2.20
2023-09-30T11:36:38.586Z,2.55
2023-09-30T11:39:10.299Z,2.25
2023-09-30T11:41:40.974Z,2.60
2023-09-30T11:44:13.988Z,2.17
2023-09-30T11:46:55.141Z,2.33
2023-09-30T11:49:29.137Z,2.25
2023-09-30T11:51:57.960Z,2.53
2023-09-30T11:54:31.863Z,1.83
2023-09-30T11:57:01.816Z,2.00
2023-09-30T11:59:30.365Z,2.05
2023-09-30T12:02:11.329Z,2.35
2023-09-30T12:04:42.819Z,2.35
2023-09-30T12:07:11.018Z,2.20
2023-09-30T12:09:40.928Z,2.60
2023-09-30T12:12:11.979Z,2.33
2023-09-30T12:14:41.568Z,2.15
2023-09-30T12:17:13.193Z,2.35
2023-09-30T12:19:43.414Z,2.00
2023-09-30T12:22:12.374Z,2.08
2023-09-30T12:24:40.868Z,2.00
2023-09-30T12:27:10.820Z,2.08
2023-09-30T12:29:40.080Z,2.20
2023-09-30T12:32:08.761Z,2.10
2023-09-30T12:34:37.323Z,2.03
2023-09-30T12:37:05.862Z,2.20
2023-09-30T12:39:34.786Z,2.70
2023-09-30T12:42:04.381Z,2.30
2023-09-30T12:44:35.166Z,2.00
2023-09-30T12:47:04.193Z,2.20
2023-09-30T12:49:32.793Z,2.42
2023-09-30T12:52:02.607Z,2.25
2023-09-30T12:54:31.157Z,1.83
2023-09-30T12:56:59.316Z,2.35
2023-09-30T12:59:27.494Z,2.08
2023-09-30T13:01:57.726Z,1.77
2023-09-30T13:04:26.679Z,2.45
2023-09-30T13:06:55.067Z,2.22
2023-09-30T13:09:23.380Z,2.10
2023-09-30T13:11:51.832Z,2.10
2023-09-30T13:14:19.949Z,1.80
2023-09-30T13:16:48.190Z,2.08
2023-09-30T13:19:22.420Z,2.17
2023-09-30T13:21:51.387Z,1.63
2023-09-30T13:24:19.629Z,2.50
2023-09-30T13:26:48.160Z,2.42
2023-09-30T13:29:17.406Z,2.20
2023-09-30T13:31:46.175Z,2.80
2023-09-30T13:34:15.409Z,2.50
2023-09-30T13:36:44.925Z,2.33
2023-09-30T13:39:14.937Z,1.90
2023-09-30T13:41:43.065Z,2.25
2023-09-30T13:44:11.950Z,2.28
2023-09-30T13:46:40.265Z,2.00
2023-09-30T13:49:09.211Z,2.28
2023-09-30T13:51:40.116Z,2.28
2023-09-30T13:54:10.100Z,2.22
2023-09-30T13:56:38.320Z,2.05
2023-09-30T13:59:08.426Z,2.25
2023-09-30T14:01:37.833Z,2.22
2023-09-30T14:04:06.960Z,1.95
2023-09-30T14:06:35.175Z,2.20
2023-09-30T14:09:03.810Z,2.17
2023-09-30T14:11:33.326Z,2.33
2023-09-30T14:14:01.921Z,1.73
2023-09-30T14:16:30.189Z,1.92
2023-09-30T14:18:58.682Z,2.10
2023-09-30T14:21:27.140Z,1.92
2023-09-30T14:23:56.308Z,1.90
2023-09-30T14:26:24.392Z,2.28
2023-09-30T14:28:53.913Z,1.80
2023-09-30T14:31:22.447Z,2.10
2023-09-30T14:33:52.140Z,1.90
2023-09-30T14:36:20.565Z,2.20
2023-09-30T14:39:00.200Z,2.13
2023-09-30T14:41:36.770Z,2.20
2023-09-30T14:44:08.924Z,2.17
2023-09-30T14:46:38.397Z,2.30
2023-09-30T14:49:07.347Z,1.90
2023-09-30T14:51:35.804Z,2.00
2023-09-30T14:54:05.455Z,1.85
2023-09-30T14:56:33.932Z,1.98
2023-09-30T14:59:02.123Z,2.33
2023-09-30T15:01:31.832Z,1.95
2023-09-30T15:04:00.452Z,2.17
2023-09-30T15:06:29.791Z,2.05
2023-09-30T15:08:58.508Z,2.08
2023-09-30T15:11:26.824Z,2.10
2023-09-30T15:13:55.915Z,2.05
2023-09-30T15:16:26.180Z,2.25
2023-09-30T15:18:55.982Z,2.08
2023-09-30T15:21:25.184Z,2.05
2023-09-30T15:23:53.452Z,1.98
2023-09-30T15:26:21.699Z,1.83
2023-09-30T15:28:49.921Z,2.03
2023-09-30T15:31:18.154Z,2.30
2023-09-30T15:33:46.436Z,1.95
2023-09-30T15:36:18.875Z,1.92
2023-09-30T15:38:48.025Z,2.42
2023-09-30T15:41:17.044Z,2.10
2023-09-30T15:43:45.196Z,1.98
2023-09-30T15:46:13.616Z,1.95
2023-09-30T15:48:41.793Z,2.22
2023-09-30T15:51:09.976Z,2.10
2023-09-30T15:53:39.611Z,2.10
2023-09-30T15:56:07.950Z,1.83
2023-09-30T15:58:36.156Z,1.80
2023-09-30T16:01:05.030Z,1.67
2023-09-30T16:03:33.896Z,2.10
2023-09-30T16:06:02.084Z,2.33
2023-09-30T16:08:30.470Z,1.80
2023-09-30T16:10:59.907Z,1.85
2023-09-30T16:13:29.036Z,1.90
2023-09-30T16:15:57.332Z,1.70
2023-09-30T16:18:26.309Z,2.28
2023-09-30T16:20:55.532Z,2.00
2023-09-30T16:23:23.858Z,1.95
2023-09-30T16:25:52.013Z,1.80
2023-09-30T16:28:21.668Z,2.10
2023-09-30T16:30:50.109Z,1.90
2023-09-30T16:33:20.383Z,2.00
2023-09-30T16:35:51.939Z,2.00
2023-09-30T16:38:20.105Z,2.20
2023-09-30T16:40:49.653Z,2.20
2023-09-30T16:43:18.220Z,1.85
2023-09-30T16:45:50.117Z,1.80
2023-09-30T16:48:19.824Z,1.73
2023-09-30T16:50:48.205Z,1.75
2023-09-30T16:53:17.964Z,2.00
2023-09-30T16:55:47.964Z,1.85
2023-09-30T16:58:16.817Z,2.03
2023-09-30T17:00:45.048Z,1.80
2023-09-30T17:03:15.061Z,1.67
2023-09-30T17:05:44.162Z,1.85
2023-09-30T17:08:13.095Z,2.22
2023-09-30T17:10:41.825Z,2.17
2023-09-30T17:13:10.843Z,13.90
2023-09-30T17:15:43.244Z,2.47
2023-09-30T17:18:11.676Z,2.03
2023-09-30T17:20:45.988Z,1.73
2023-09-30T17:23:15.127Z,1.73
2023-09-30T17:25:44.013Z,1.70
2023-09-30T17:28:12.543Z,1.70
2023-09-30T17:30:42.458Z,2.00
2023-09-30T17:33:11.119Z,1.42
2023-09-30T17:35:40.871Z,1.60
2023-09-30T17:38:11.171Z,1.90
2023-09-30T17:40:40.393Z,1.88
2023-09-30T17:43:08.693Z,1.95
2023-09-30T17:45:37.104Z,1.65
2023-09-30T17:48:06.830Z,2.00
2023-09-30T17:50:35.094Z,1.85
2023-09-30T17:53:03.288Z,1.65
2023-09-30T17:55:37.838Z,2.38
2023-09-30T17:58:06.275Z,1.70
2023-09-30T18:00:34.742Z,1.50
2023-09-30T18:03:03.292Z,1.80
2023-09-30T18:05:31.534Z,1.75
2023-09-30T18:07:59.822Z,1.67
2023-09-30T18:10:27.951Z,1.45
2023-09-30T18:12:57.525Z,1.98
2023-09-30T18:15:25.731Z,1.92
2023-09-30T18:18:09.206Z,1.88
2023-09-30T18:20:41.345Z,2.00
2023-09-30T18:23:09.563Z,1.80
2023-09-30T18:25:37.753Z,1.88
2023-09-30T18:28:08.109Z,1.65
2023-09-30T18:30:36.502Z,1.95
2023-09-30T18:33:05.135Z,1.48
2023-09-30T18:35:33.298Z,1.60
2023-09-30T18:38:01.592Z,2.00
2023-09-30T18:40:31.496Z,1.90
2023-09-30T18:42:59.700Z,1.60
2023-09-30T18:45:29.255Z,2.35
2023-09-30T18:47:57.697Z,2.30
2023-09-30T18:50:25.874Z,2.10
2023-09-30T18:52:56.205Z,1.98
2023-09-30T18:55:24.391Z,2.00
2023-09-30T18:57:52.566Z,2.05
2023-09-30T19:00:21.370Z,2.08
2023-09-30T19:02:50.956Z,2.47
2023-09-30T19:05:19.144Z,2.47
2023-09-30T19:07:47.297Z,2.47
2023-09-30T19:10:15.634Z,2.60
2023-09-30T19:12:43.869Z,1.92
2023-09-30T19:15:12.657Z,2.30
2023-09-30T19:17:40.845Z,2.20
2023-09-30T19:20:11.655Z,2.47
2023-09-30T19:22:39.888Z,3.00
2023-09-30T19:25:08.749Z,2.60
2023-09-30T19:27:37.257Z,2.45
2023-09-30T19:30:06.756Z,2.40
2023-09-30T19:32:35.618Z,2.30
2023-09-30T19:35:05.083Z,2.67
2023-09-30T19:37:34.713Z,2.67
2023-09-30T19:40:04.461Z,2.47
2023-09-30T19:42:32.824Z,2.63
2023-09-30T19:45:01.376Z,3.00
2023-09-30T19:47:29.714Z,3.15
2023-09-30T19:49:57.827Z,3.65
2023-09-30T19:52:29.912Z,3.22
2023-09-30T19:54:59.643Z,3.10
2023-09-30T19:57:30.180Z,2.90
2023-09-30T19:59:58.402Z,2.72
2023-09-30T20:02:26.688Z,2.78
2023-09-30T20:04:55.956Z,2.70
2023-09-30T20:07:24.459Z,2.90
2023-09-30T20:09:54.073Z,2.90
2023-09-30T20:12:23.667Z,2.90
2023-09-30T20:14:52.315Z,2.80
2023-09-30T20:17:20.428Z,3.20
2023-09-30T20:19:49.828Z,3.22
2023-09-30T20:22:18.482Z,3.13
2023-09-30T20:24:46.808Z,3.03
2023-09-30T20:27:15.013Z,2.97
2023-09-30T20:29:46.481Z,2.70
2023-09-30T20:32:15.526Z,3.40
2023-09-30T20:34:43.784Z,3.88
2023-09-30T20:37:11.990Z,3.20
2023-09-30T20:39:40.370Z,2.85
2023-09-30T20:42:08.546Z,3.42
2023-09-30T20:44:36.720Z,3.10
2023-09-30T20:47:06.708Z,3.05
2023-09-30T20:49:37.458Z,3.20
2023-09-30T20:52:06.063Z,2.95
2023-09-30T20:54:34.767Z,2.90
2023-09-30T20:57:03.050Z,3.58
2023-09-30T20:59:31.134Z,2.65
2023-09-30T21:01:59.352Z,3.30
2023-09-30T21:04:28.959Z,3.25
2023-09-30T21:06:58.064Z,3.00
2023-09-30T21:09:26.211Z,3.08
2023-09-30T21:11:54.892Z,3.60
2023-09-30T21:14:23.147Z,3.00
2023-09-30T21:16:51.291Z,3.28
2023-09-30T21:19:19.469Z,2.90
2023-09-30T21:21:49.062Z,2.78
2023-09-30T21:24:17.203Z,3.15
2023-09-30T21:26:45.296Z,2.50
2023-09-30T21:29:13.458Z,2.63
2023-09-30T21:31:42.854Z,2.55
2023-09-30T21:34:11.179Z,3.33
2023-09-30T21:36:39.386Z,3.63
2023-09-30T21:39:10.390Z,3.17
2023-09-30T21:41:38.528Z,3.20
2023-09-30T21:44:07.322Z,3.13
2023-09-30T21:46:35.478Z,3.20
2023-09-30T21:49:03.740Z,3.20
2023-09-30T21:51:31.901Z,3.28
2023-09-30T21:54:00.039Z,2.90
2023-09-30T21:56:29.502Z,3.33
2023-09-30T21:58:58.065Z,3.03
2023-09-30T22:01:26.482Z,2.90
2023-09-30T22:03:55.111Z,2.92
2023-09-30T22:06:23.462Z,2.80
2023-09-30T22:08:51.671Z,2.88
2023-09-30T22:11:19.868Z,3.10
2023-09-30T22:13:50.239Z,2.83
2023-09-30T22:16:18.476Z,3.15
2023-09-30T22:18:46.809Z,2.97
2023-09-30T22:21:14.934Z,3.28
2023-09-30T22:23:43.637Z,3.40
2023-09-30T22:26:11.872Z,2.90
2023-09-30T22:28:40.046Z,3.38
2023-09-30T22:31:10.754Z,3.30
2023-09-30T22:33:39.058Z,3.55
2023-09-30T22:36:08.000Z,3.15
2023-09-30T22:38:36.178Z,2.97
2023-09-30T22:41:07.380Z,3.22
2023-09-30T22:43:35.756Z,3.15
2023-09-30T22:46:05.460Z,2.95
2023-09-30T22:48:35.202Z,2.38
2023-09-30T22:51:03.806Z,2.70
2023-09-30T22:53:32.236Z,2.78
2023-09-30T22:56:00.405Z,2.70
2023-09-30T22:58:31.008Z,2.83
2023-09-30T23:00:59.212Z,2.72
2023-09-30T23:03:28.152Z,2.75
2023-09-30T23:05:57.796Z,2.88
2023-09-30T23:08:25.956Z,2.58
2023-09-30T23:10:54.124Z,2.88
2023-09-30T23:13:22.355Z,2.85
2023-09-30T23:15:50.679Z,2.60
2023-09-30T23:18:18.921Z,2.85
2023-09-30T23:20:47.228Z,2.70
2023-09-30T23:23:16.831Z,2.90
2023-09-30T23:25:45.175Z,2.67
2023-09-30T23:28:13.405Z,2.58
2023-09-30T23:30:41.677Z,2.60
2023-09-30T23:33:09.961Z,2.50
2023-09-30T23:35:38.142Z,2.58
2023-09-30T23:38:09.027Z,2.55
2023-09-30T23:40:39.267Z,2.40
2023-09-30T23:43:08.771Z,2.63
2023-09-30T23:45:38.941Z,2.17
2023-09-30T23:48:10.906Z,2.70
2023-09-30T23:50:41.888Z,2.45
2023-09-30T23:53:10.286Z,2.10
2023-09-30T23:55:39.833Z,2.40
2023-09-30T23:58:11.329Z,2.50
